sensor_id;sensor_type;location;lat;lon;timestamp;P1;durP1;ratioP1;P2;durP2;ratioP2
16502;SDS011;53067;48.114;11.694;2023-05-13T00:01:21;7.00;;;6.40;;
16502;SDS011;53067;48.114;11.694;2023-05-13T00:03:49;8.10;;;7.30;;
16502;SDS011;53067;48.114;11.694;2023-05-13T00:06:16;7.90;;;7.20;;
16502;SDS011;53067;48.114;11.694;2023-05-13T00:08:44;9.87;;;7.87;;
16502;SDS011;53067;48.114;11.694;2023-05-13T00:11:12;8.13;;;7.33;;
16502;SDS011;53067;48.114;11.694;2023-05-13T00:13:39;8.23;;;7.43;;
16502;SDS011;53067;48.114;11.694;2023-05-13T00:16:07;8.70;;;7.90;;
16502;SDS011;53067;48.114;11.694;2023-05-13T00:18:34;8.93;;;7.67;;
16502;SDS011;53067;48.114;11.694;2023-05-13T00:21:02;8.43;;;7.63;;
16502;SDS011;53067;48.114;11.694;2023-05-13T00:23:29;8.60;;;7.47;;
16502;SDS011;53067;48.114;11.694;2023-05-13T00:25:57;8.17;;;7.40;;
16502;SDS011;53067;48.114;11.694;2023-05-13T00:28:26;8.53;;;7.27;;
16502;SDS011;53067;48.114;11.694;2023-05-13T00:30:53;8.30;;;6.77;;
16502;SDS011;53067;48.114;11.694;2023-05-13T00:33:21;7.60;;;6.90;;
16502;SDS011;53067;48.114;11.694;2023-05-13T00:35:48;7.97;;;7.17;;
16502;SDS011;53067;48.114;11.694;2023-05-13T00:38:16;8.70;;;7.30;;
16502;SDS011;53067;48.114;11.694;2023-05-13T00:40:43;8.20;;;7.23;;
16502;SDS011;53067;48.114;11.694;2023-05-13T00:43:12;8.23;;;7.27;;
16502;SDS011;53067;48.114;11.694;2023-05-13T00:45:40;8.00;;;7.20;;
16502;SDS011;53067;48.114;11.694;2023-05-13T00:48:07;7.80;;;7.00;;
16502;SDS011;53067;48.114;11.694;2023-05-13T00:50:35;8.47;;;7.60;;
16502;SDS011;53067;48.114;11.694;2023-05-13T00:53:03;8.77;;;7.87;;
16502;SDS011;53067;48.114;11.694;2023-05-13T00:55:30;8.67;;;7.77;;
16502;SDS011;53067;48.114;11.694;2023-05-13T00:57:58;9.13;;;7.93;;
16502;SDS011;53067;48.114;11.694;2023-05-13T01:00:26;8.40;;;7.50;;
16502;SDS011;53067;48.114;11.694;2023-05-13T01:02:56;9.43;;;8.43;;
16502;SDS011;53067;48.114;11.694;2023-05-13T01:11:08;9.17;;;8.17;;
16502;SDS011;53067;48.114;11.694;2023-05-13T01:13:36;10.03;;;8.70;;
16502;SDS011;53067;48.114;11.694;2023-05-13T01:18:43;10.93;;;9.37;;
16502;SDS011;53067;48.114;11.694;2023-05-13T01:21:12;9.80;;;8.67;;
16502;SDS011;53067;48.114;11.694;2023-05-13T01:23:40;10.77;;;9.60;;
16502;SDS011;53067;48.114;11.694;2023-05-13T01:26:07;10.53;;;9.40;;
16502;SDS011;53067;48.114;11.694;2023-05-13T01:28:35;13.10;;;10.13;;
16502;SDS011;53067;48.114;11.694;2023-05-13T01:31:02;10.43;;;9.17;;
16502;SDS011;53067;48.114;11.694;2023-05-13T01:33:30;10.57;;;9.47;;
16502;SDS011;53067;48.114;11.694;2023-05-13T01:35:58;10.30;;;9.20;;
16502;SDS011;53067;48.114;11.694;2023-05-13T01:38:27;11.70;;;9.37;;
16502;SDS011;53067;48.114;11.694;2023-05-13T01:40:57;12.73;;;9.87;;
16502;SDS011;53067;48.114;11.694;2023-05-13T01:43:25;13.43;;;9.63;;
16502;SDS011;53067;48.114;11.694;2023-05-13T01:45:53;11.30;;;9.27;;
16502;SDS011;53067;48.114;11.694;2023-05-13T01:48:23;11.43;;;10.23;;
16502;SDS011;53067;48.114;11.694;2023-05-13T01:50:50;12.10;;;9.77;;
16502;SDS011;53067;48.114;11.694;2023-05-13T01:53:18;12.63;;;10.77;;
16502;SDS011;53067;48.114;11.694;2023-05-13T01:55:46;14.17;;;9.87;;
16502;SDS011;53067;48.114;11.694;2023-05-13T01:58:13;11.07;;;9.90;;
16502;SDS011;53067;48.114;11.694;2023-05-13T02:00:41;11.87;;;10.03;;
16502;SDS011;53067;48.114;11.694;2023-05-13T02:03:08;11.57;;;10.27;;
16502;SDS011;53067;48.114;11.694;2023-05-13T02:05:36;13.43;;;11.10;;
16502;SDS011;53067;48.114;11.694;2023-05-13T02:08:05;11.63;;;10.03;;
16502;SDS011;53067;48.114;11.694;2023-05-13T02:10:32;12.03;;;9.70;;
16502;SDS011;53067;48.114;11.694;2023-05-13T02:13:00;12.90;;;10.70;;
16502;SDS011;53067;48.114;11.694;2023-05-13T02:15:28;12.27;;;10.83;;
16502;SDS011;53067;48.114;11.694;2023-05-13T02:17:56;13.40;;;11.10;;
16502;SDS011;53067;48.114;11.694;2023-05-13T02:20:23;12.50;;;10.43;;
16502;SDS011;53067;48.114;11.694;2023-05-13T02:22:51;12.77;;;11.00;;
16502;SDS011;53067;48.114;11.694;2023-05-13T02:25:21;12.10;;;10.80;;
16502;SDS011;53067;48.114;11.694;2023-05-13T02:27:48;15.20;;;11.77;;
16502;SDS011;53067;48.114;11.694;2023-05-13T02:30:28;11.53;;;10.33;;
16502;SDS011;53067;48.114;11.694;2023-05-13T02:32:56;11.40;;;10.20;;
16502;SDS011;53067;48.114;11.694;2023-05-13T02:35:23;14.20;;;11.70;;
16502;SDS011;53067;48.114;11.694;2023-05-13T02:37:53;13.10;;;11.67;;
16502;SDS011;53067;48.114;11.694;2023-05-13T02:40:20;14.80;;;12.00;;
16502;SDS011;53067;48.114;11.694;2023-05-13T02:42:48;13.17;;;11.57;;
16502;SDS011;53067;48.114;11.694;2023-05-13T02:45:16;13.23;;;11.73;;
16502;SDS011;53067;48.114;11.694;2023-05-13T02:47:43;15.53;;;11.57;;
16502;SDS011;53067;48.114;11.694;2023-05-13T02:50:11;14.60;;;11.00;;
16502;SDS011;53067;48.114;11.694;2023-05-13T02:52:38;12.10;;;10.30;;
16502;SDS011;53067;48.114;11.694;2023-05-13T02:55:06;12.33;;;10.93;;
16502;SDS011;53067;48.114;11.694;2023-05-13T02:57:38;13.77;;;11.23;;
16502;SDS011;53067;48.114;11.694;2023-05-13T03:00:05;13.77;;;10.47;;
16502;SDS011;53067;48.114;11.694;2023-05-13T03:02:34;13.07;;;11.20;;
16502;SDS011;53067;48.114;11.694;2023-05-13T03:05:01;14.57;;;12.10;;
16502;SDS011;53067;48.114;11.694;2023-05-13T03:07:29;13.40;;;11.20;;
16502;SDS011;53067;48.114;11.694;2023-05-13T03:09:57;14.40;;;11.67;;
16502;SDS011;53067;48.114;11.694;2023-05-13T03:12:25;11.60;;;10.40;;
16502;SDS011;53067;48.114;11.694;2023-05-13T03:14:52;12.10;;;10.80;;
16502;SDS011;53067;48.114;11.694;2023-05-13T03:17:20;11.67;;;10.47;;
16502;SDS011;53067;48.114;11.694;2023-05-13T03:19:47;10.90;;;9.70;;
16502;SDS011;53067;48.114;11.694;2023-05-13T03:22:15;14.13;;;10.77;;
16502;SDS011;53067;48.114;11.694;2023-05-13T03:24:43;14.23;;;11.00;;
16502;SDS011;53067;48.114;11.694;2023-05-13T03:27:10;10.60;;;9.47;;
16502;SDS011;53067;48.114;11.694;2023-05-13T03:29:38;11.60;;;10.23;;
16502;SDS011;53067;48.114;11.694;2023-05-13T03:32:05;11.37;;;10.13;;
16502;SDS011;53067;48.114;11.694;2023-05-13T03:34:33;11.50;;;10.30;;
16502;SDS011;53067;48.114;11.694;2023-05-13T03:37:02;11.30;;;9.80;;
16502;SDS011;53067;48.114;11.694;2023-05-13T03:39:30;11.53;;;9.43;;
16502;SDS011;53067;48.114;11.694;2023-05-13T03:41:57;11.73;;;9.57;;
16502;SDS011;53067;48.114;11.694;2023-05-13T03:44:25;12.60;;;10.37;;
16502;SDS011;53067;48.114;11.694;2023-05-13T03:46:53;12.90;;;9.93;;
16502;SDS011;53067;48.114;11.694;2023-05-13T03:49:20;13.50;;;10.23;;
16502;SDS011;53067;48.114;11.694;2023-05-13T03:51:48;13.47;;;10.80;;
16502;SDS011;53067;48.114;11.694;2023-05-13T03:54:15;11.87;;;10.13;;
16502;SDS011;53067;48.114;11.694;2023-05-13T03:56:43;12.80;;;10.00;;
16502;SDS011;53067;48.114;11.694;2023-05-13T03:59:11;11.73;;;10.20;;
16502;SDS011;53067;48.114;11.694;2023-05-13T04:01:38;13.67;;;10.10;;
16502;SDS011;53067;48.114;11.694;2023-05-13T04:04:06;11.47;;;10.27;;
16502;SDS011;53067;48.114;11.694;2023-05-13T04:06:33;15.37;;;12.43;;
16502;SDS011;53067;48.114;11.694;2023-05-13T04:09:01;14.43;;;12.47;;
16502;SDS011;53067;48.114;11.694;2023-05-13T04:11:30;12.73;;;11.07;;
16502;SDS011;53067;48.114;11.694;2023-05-13T04:13:58;15.00;;;12.20;;
16502;SDS011;53067;48.114;11.694;2023-05-13T04:16:26;14.47;;;12.43;;
16502;SDS011;53067;48.114;11.694;2023-05-13T04:18:54;14.90;;;12.30;;
16502;SDS011;53067;48.114;11.694;2023-05-13T04:21:21;16.00;;;12.43;;
16502;SDS011;53067;48.114;11.694;2023-05-13T04:23:49;14.60;;;12.93;;
16502;SDS011;53067;48.114;11.694;2023-05-13T04:26:16;16.23;;;12.80;;
16502;SDS011;53067;48.114;11.694;2023-05-13T04:28:45;14.07;;;11.80;;
16502;SDS011;53067;48.114;11.694;2023-05-13T04:31:12;12.87;;;11.53;;
16502;SDS011;53067;48.114;11.694;2023-05-13T04:33:40;14.63;;;12.37;;
16502;SDS011;53067;48.114;11.694;2023-05-13T04:36:07;15.07;;;12.37;;
16502;SDS011;53067;48.114;11.694;2023-05-13T04:38:35;14.70;;;11.80;;
16502;SDS011;53067;48.114;11.694;2023-05-13T04:41:02;15.37;;;11.53;;
16502;SDS011;53067;48.114;11.694;2023-05-13T04:43:30;14.73;;;12.13;;
16502;SDS011;53067;48.114;11.694;2023-05-13T04:45:57;14.00;;;11.77;;
16502;SDS011;53067;48.114;11.694;2023-05-13T04:48:25;15.97;;;11.73;;
16502;SDS011;53067;48.114;11.694;2023-05-13T04:50:53;15.73;;;11.83;;
16502;SDS011;53067;48.114;11.694;2023-05-13T04:53:21;14.70;;;11.27;;
16502;SDS011;53067;48.114;11.694;2023-05-13T04:55:48;15.93;;;11.37;;
16502;SDS011;53067;48.114;11.694;2023-05-13T04:58:17;13.30;;;11.50;;
16502;SDS011;53067;48.114;11.694;2023-05-13T05:00:44;13.07;;;11.67;;
16502;SDS011;53067;48.114;11.694;2023-05-13T05:03:12;14.07;;;12.03;;
16502;SDS011;53067;48.114;11.694;2023-05-13T05:05:39;14.53;;;12.57;;
16502;SDS011;53067;48.114;11.694;2023-05-13T05:08:07;15.87;;;11.60;;
16502;SDS011;53067;48.114;11.694;2023-05-13T05:10:34;15.93;;;12.70;;
16502;SDS011;53067;48.114;11.694;2023-05-13T05:13:02;13.53;;;11.53;;
16502;SDS011;53067;48.114;11.694;2023-05-13T05:15:29;15.10;;;12.10;;
16502;SDS011;53067;48.114;11.694;2023-05-13T05:17:57;14.70;;;11.87;;
16502;SDS011;53067;48.114;11.694;2023-05-13T05:20:24;16.53;;;12.33;;
16502;SDS011;53067;48.114;11.694;2023-05-13T05:22:52;15.10;;;12.33;;
16502;SDS011;53067;48.114;11.694;2023-05-13T05:25:19;13.73;;;11.27;;
16502;SDS011;53067;48.114;11.694;2023-05-13T05:27:49;12.20;;;10.10;;
16502;SDS011;53067;48.114;11.694;2023-05-13T05:30:16;13.97;;;11.30;;
16502;SDS011;53067;48.114;11.694;2023-05-13T05:32:44;12.83;;;10.97;;
16502;SDS011;53067;48.114;11.694;2023-05-13T05:35:12;13.37;;;10.53;;
16502;SDS011;53067;48.114;11.694;2023-05-13T05:37:41;12.10;;;10.67;;
16502;SDS011;53067;48.114;11.694;2023-05-13T05:40:08;12.50;;;10.40;;
16502;SDS011;53067;48.114;11.694;2023-05-13T05:42:36;12.43;;;10.17;;
16502;SDS011;53067;48.114;11.694;2023-05-13T05:45:04;12.83;;;9.90;;
16502;SDS011;53067;48.114;11.694;2023-05-13T05:47:32;13.87;;;10.03;;
16502;SDS011;53067;48.114;11.694;2023-05-13T05:50:00;12.07;;;9.30;;
16502;SDS011;53067;48.114;11.694;2023-05-13T05:52:28;15.30;;;10.17;;
16502;SDS011;53067;48.114;11.694;2023-05-13T05:54:55;12.40;;;10.70;;
16502;SDS011;53067;48.114;11.694;2023-05-13T05:57:23;11.67;;;9.63;;
16502;SDS011;53067;48.114;11.694;2023-05-13T05:59:50;10.87;;;9.67;;
16502;SDS011;53067;48.114;11.694;2023-05-13T06:02:18;11.27;;;9.23;;
16502;SDS011;53067;48.114;11.694;2023-05-13T06:04:45;11.97;;;9.60;;
16502;SDS011;53067;48.114;11.694;2023-05-13T06:07:13;10.43;;;9.23;;
16502;SDS011;53067;48.114;11.694;2023-05-13T06:09:40;11.23;;;9.73;;
16502;SDS011;53067;48.114;11.694;2023-05-13T06:12:08;14.17;;;9.83;;
16502;SDS011;53067;48.114;11.694;2023-05-13T06:14:35;11.63;;;10.43;;
16502;SDS011;53067;48.114;11.694;2023-05-13T06:17:03;14.03;;;10.13;;
16502;SDS011;53067;48.114;11.694;2023-05-13T06:19:30;14.03;;;10.80;;
16502;SDS011;53067;48.114;11.694;2023-05-13T06:21:58;14.13;;;10.40;;
16502;SDS011;53067;48.114;11.694;2023-05-13T06:24:25;14.23;;;11.03;;
16502;SDS011;53067;48.114;11.694;2023-05-13T06:26:53;13.37;;;10.90;;
16502;SDS011;53067;48.114;11.694;2023-05-13T06:29:21;16.00;;;11.37;;
16502;SDS011;53067;48.114;11.694;2023-05-13T06:31:48;15.93;;;11.97;;
16502;SDS011;53067;48.114;11.694;2023-05-13T06:34:16;14.03;;;11.63;;
16502;SDS011;53067;48.114;11.694;2023-05-13T06:36:44;15.37;;;11.57;;
16502;SDS011;53067;48.114;11.694;2023-05-13T06:39:11;14.60;;;11.60;;
16502;SDS011;53067;48.114;11.694;2023-05-13T06:41:39;15.20;;;11.87;;
16502;SDS011;53067;48.114;11.694;2023-05-13T06:44:07;13.50;;;11.23;;
16502;SDS011;53067;48.114;11.694;2023-05-13T06:46:34;14.97;;;11.33;;
16502;SDS011;53067;48.114;11.694;2023-05-13T06:49:02;14.67;;;11.30;;
16502;SDS011;53067;48.114;11.694;2023-05-13T06:51:29;16.20;;;12.93;;
16502;SDS011;53067;48.114;11.694;2023-05-13T06:53:58;13.13;;;11.37;;
16502;SDS011;53067;48.114;11.694;2023-05-13T06:56:25;15.27;;;12.07;;
16502;SDS011;53067;48.114;11.694;2023-05-13T06:58:54;13.77;;;11.50;;
16502;SDS011;53067;48.114;11.694;2023-05-13T07:01:21;14.50;;;10.93;;
16502;SDS011;53067;48.114;11.694;2023-05-13T07:03:49;14.30;;;10.90;;
16502;SDS011;53067;48.114;11.694;2023-05-13T07:06:16;14.23;;;11.27;;
16502;SDS011;53067;48.114;11.694;2023-05-13T07:08:44;14.87;;;11.50;;
16502;SDS011;53067;48.114;11.694;2023-05-13T07:11:11;13.90;;;11.07;;
16502;SDS011;53067;48.114;11.694;2023-05-13T07:13:39;15.80;;;11.40;;
16502;SDS011;53067;48.114;11.694;2023-05-13T07:16:07;13.30;;;11.23;;
16502;SDS011;53067;48.114;11.694;2023-05-13T07:18:34;14.30;;;11.07;;
16502;SDS011;53067;48.114;11.694;2023-05-13T07:21:02;15.43;;;11.77;;
16502;SDS011;53067;48.114;11.694;2023-05-13T07:23:29;13.17;;;11.13;;
16502;SDS011;53067;48.114;11.694;2023-05-13T07:25:57;12.77;;;10.53;;
16502;SDS011;53067;48.114;11.694;2023-05-13T07:28:24;10.30;;;8.80;;
16502;SDS011;53067;48.114;11.694;2023-05-13T07:30:52;14.27;;;10.67;;
16502;SDS011;53067;48.114;11.694;2023-05-13T07:33:20;13.10;;;9.83;;
16502;SDS011;53067;48.114;11.694;2023-05-13T07:35:47;12.90;;;10.20;;
16502;SDS011;53067;48.114;11.694;2023-05-13T07:38:15;12.70;;;10.33;;
16502;SDS011;53067;48.114;11.694;2023-05-13T07:40:42;12.33;;;9.53;;
16502;SDS011;53067;48.114;11.694;2023-05-13T07:43:10;12.80;;;9.77;;
16502;SDS011;53067;48.114;11.694;2023-05-13T07:45:38;11.97;;;10.27;;
16502;SDS011;53067;48.114;11.694;2023-05-13T07:48:07;11.03;;;9.93;;
16502;SDS011;53067;48.114;11.694;2023-05-13T07:50:35;11.20;;;9.07;;
16502;SDS011;53067;48.114;11.694;2023-05-13T07:53:02;10.13;;;9.10;;
16502;SDS011;53067;48.114;11.694;2023-05-13T07:55:30;11.43;;;8.60;;
16502;SDS011;53067;48.114;11.694;2023-05-13T07:57:58;11.93;;;9.43;;
16502;SDS011;53067;48.114;11.694;2023-05-13T08:00:25;11.53;;;10.00;;
16502;SDS011;53067;48.114;11.694;2023-05-13T08:02:53;13.10;;;10.73;;
16502;SDS011;53067;48.114;11.694;2023-05-13T08:05:20;14.33;;;11.27;;
16502;SDS011;53067;48.114;11.694;2023-05-13T08:07:48;14.87;;;10.90;;
16502;SDS011;53067;48.114;11.694;2023-05-13T08:10:16;15.13;;;11.90;;
16502;SDS011;53067;48.114;11.694;2023-05-13T08:12:43;14.37;;;12.07;;
16502;SDS011;53067;48.114;11.694;2023-05-13T08:15:12;13.63;;;10.93;;
16502;SDS011;53067;48.114;11.694;2023-05-13T08:17:41;14.27;;;11.57;;
16502;SDS011;53067;48.114;11.694;2023-05-13T08:20:09;12.90;;;10.97;;
16502;SDS011;53067;48.114;11.694;2023-05-13T08:22:37;12.57;;;11.27;;
16502;SDS011;53067;48.114;11.694;2023-05-13T08:25:04;12.27;;;10.97;;
16502;SDS011;53067;48.114;11.694;2023-05-13T08:27:33;11.30;;;10.07;;
16502;SDS011;53067;48.114;11.694;2023-05-13T08:30:01;13.53;;;10.73;;
16502;SDS011;53067;48.114;11.694;2023-05-13T08:32:29;10.63;;;9.53;;
16502;SDS011;53067;48.114;11.694;2023-05-13T08:34:56;10.63;;;9.53;;
16502;SDS011;53067;48.114;11.694;2023-05-13T08:37:26;10.57;;;9.47;;
16502;SDS011;53067;48.114;11.694;2023-05-13T08:39:53;10.23;;;8.67;;
16502;SDS011;53067;48.114;11.694;2023-05-13T08:42:21;10.07;;;8.40;;
16502;SDS011;53067;48.114;11.694;2023-05-13T08:44:50;9.17;;;8.27;;
16502;SDS011;53067;48.114;11.694;2023-05-13T08:50:18;13.63;;;9.43;;
16502;SDS011;53067;48.114;11.694;2023-05-13T08:52:49;10.37;;;9.23;;
16502;SDS011;53067;48.114;11.694;2023-05-13T08:55:18;10.73;;;9.63;;
16502;SDS011;53067;48.114;11.694;2023-05-13T08:57:47;11.70;;;10.50;;
16502;SDS011;53067;48.114;11.694;2023-05-13T09:00:14;13.43;;;10.87;;
16502;SDS011;53067;48.114;11.694;2023-05-13T09:02:42;13.40;;;11.20;;
16502;SDS011;53067;48.114;11.694;2023-05-13T09:05:10;13.50;;;10.30;;
16502;SDS011;53067;48.114;11.694;2023-05-13T09:07:37;12.13;;;10.80;;
16502;SDS011;53067;48.114;11.694;2023-05-13T09:10:06;13.10;;;11.13;;
16502;SDS011;53067;48.114;11.694;2023-05-13T09:12:41;14.43;;;11.53;;
16502;SDS011;53067;48.114;11.694;2023-05-13T09:15:18;12.40;;;11.10;;
16502;SDS011;53067;48.114;11.694;2023-05-13T09:17:50;12.17;;;10.63;;
16502;SDS011;53067;48.114;11.694;2023-05-13T09:20:20;14.57;;;11.80;;
16502;SDS011;53067;48.114;11.694;2023-05-13T09:22:51;11.37;;;10.17;;
16502;SDS011;53067;48.114;11.694;2023-05-13T09:25:20;12.83;;;10.97;;
16502;SDS011;53067;48.114;11.694;2023-05-13T09:27:51;12.83;;;11.20;;
16502;SDS011;53067;48.114;11.694;2023-05-13T09:30:22;13.23;;;11.07;;
16502;SDS011;53067;48.114;11.694;2023-05-13T09:35:43;11.67;;;9.73;;
16502;SDS011;53067;48.114;11.694;2023-05-13T09:38:19;12.10;;;10.07;;
16502;SDS011;53067;48.114;11.694;2023-05-13T09:40:57;10.57;;;9.40;;
16502;SDS011;53067;48.114;11.694;2023-05-13T09:43:30;9.90;;;8.90;;
16502;SDS011;53067;48.114;11.694;2023-05-13T09:46:02;10.70;;;9.53;;
16502;SDS011;53067;48.114;11.694;2023-05-13T09:48:37;10.00;;;9.10;;
16502;SDS011;53067;48.114;11.694;2023-05-13T09:51:07;10.70;;;8.87;;
16502;SDS011;53067;48.114;11.694;2023-05-13T09:53:35;9.57;;;7.83;;
16502;SDS011;53067;48.114;11.694;2023-05-13T09:56:02;10.10;;;9.17;;
16502;SDS011;53067;48.114;11.694;2023-05-13T09:58:36;10.43;;;9.33;;
16502;SDS011;53067;48.114;11.694;2023-05-13T10:01:03;7.97;;;7.27;;
16502;SDS011;53067;48.114;11.694;2023-05-13T10:03:31;8.60;;;7.73;;
16502;SDS011;53067;48.114;11.694;2023-05-13T10:05:59;8.40;;;7.60;;
16502;SDS011;53067;48.114;11.694;2023-05-13T10:08:40;8.60;;;7.47;;
16502;SDS011;53067;48.114;11.694;2023-05-13T10:11:14;7.93;;;7.10;;
16502;SDS011;53067;48.114;11.694;2023-05-13T10:13:45;9.10;;;8.00;;
16502;SDS011;53067;48.114;11.694;2023-05-13T10:16:15;10.17;;;7.77;;
16502;SDS011;53067;48.114;11.694;2023-05-13T10:18:55;7.57;;;6.80;;
16502;SDS011;53067;48.114;11.694;2023-05-13T10:21:26;7.87;;;7.07;;
16502;SDS011;53067;48.114;11.694;2023-05-13T10:23:55;7.23;;;6.53;;
16502;SDS011;53067;48.114;11.694;2023-05-13T10:26:23;7.90;;;7.20;;
16502;SDS011;53067;48.114;11.694;2023-05-13T10:28:50;8.10;;;7.30;;
16502;SDS011;53067;48.114;11.694;2023-05-13T10:31:20;7.20;;;6.50;;
16502;SDS011;53067;48.114;11.694;2023-05-13T10:33:47;7.37;;;6.67;;
16502;SDS011;53067;48.114;11.694;2023-05-13T10:44:54;7.20;;;6.60;;
16502;SDS011;53067;48.114;11.694;2023-05-13T10:47:24;7.20;;;6.50;;
16502;SDS011;53067;48.114;11.694;2023-05-13T10:49:52;7.40;;;6.50;;
16502;SDS011;53067;48.114;11.694;2023-05-13T10:52:20;6.67;;;6.17;;
16502;SDS011;53067;48.114;11.694;2023-05-13T10:55:00;5.90;;;5.40;;
16502;SDS011;53067;48.114;11.694;2023-05-13T10:57:29;6.50;;;5.90;;
16502;SDS011;53067;48.114;11.694;2023-05-13T11:02:53;5.80;;;5.30;;
16502;SDS011;53067;48.114;11.694;2023-05-13T11:05:20;6.23;;;5.73;;
16502;SDS011;53067;48.114;11.694;2023-05-13T11:07:54;5.43;;;4.93;;
16502;SDS011;53067;48.114;11.694;2023-05-13T11:10:26;5.10;;;4.70;;
16502;SDS011;53067;48.114;11.694;2023-05-13T11:15:43;4.77;;;4.40;;
16502;SDS011;53067;48.114;11.694;2023-05-13T11:18:13;4.40;;;4.10;;
16502;SDS011;53067;48.114;11.694;2023-05-13T11:20:44;4.20;;;3.90;;
16502;SDS011;53067;48.114;11.694;2023-05-13T11:23:16;4.83;;;4.10;;
16502;SDS011;53067;48.114;11.694;2023-05-13T11:25:45;4.57;;;4.17;;
16502;SDS011;53067;48.114;11.694;2023-05-13T11:28:15;3.80;;;3.60;;
16502;SDS011;53067;48.114;11.694;2023-05-13T11:30:52;5.67;;;4.20;;
16502;SDS011;53067;48.114;11.694;2023-05-13T11:33:20;4.10;;;3.80;;
16502;SDS011;53067;48.114;11.694;2023-05-13T11:35:54;3.87;;;3.60;;
16502;SDS011;53067;48.114;11.694;2023-05-13T11:38:22;4.50;;;4.20;;
16502;SDS011;53067;48.114;11.694;2023-05-13T11:40:50;3.90;;;3.60;;
16502;SDS011;53067;48.114;11.694;2023-05-13T11:43:21;3.70;;;3.50;;
16502;SDS011;53067;48.114;11.694;2023-05-13T11:45:50;4.13;;;3.83;;
16502;SDS011;53067;48.114;11.694;2023-05-13T11:48:21;3.70;;;3.50;;
16502;SDS011;53067;48.114;11.694;2023-05-13T11:50:51;3.83;;;3.53;;
16502;SDS011;53067;48.114;11.694;2023-05-13T11:53:20;3.77;;;3.40;;
16502;SDS011;53067;48.114;11.694;2023-05-13T11:55:48;3.93;;;3.67;;
16502;SDS011;53067;48.114;11.694;2023-05-13T11:58:16;3.57;;;3.37;;
16502;SDS011;53067;48.114;11.694;2023-05-13T12:00:45;3.87;;;3.67;;
16502;SDS011;53067;48.114;11.694;2023-05-13T12:03:12;3.97;;;3.73;;
16502;SDS011;53067;48.114;11.694;2023-05-13T12:05:40;3.97;;;3.77;;
16502;SDS011;53067;48.114;11.694;2023-05-13T12:08:10;3.90;;;3.60;;
16502;SDS011;53067;48.114;11.694;2023-05-13T12:10:43;4.20;;;3.90;;
16502;SDS011;53067;48.114;11.694;2023-05-13T12:13:11;3.97;;;3.77;;
16502;SDS011;53067;48.114;11.694;2023-05-13T12:15:39;4.20;;;3.90;;
16502;SDS011;53067;48.114;11.694;2023-05-13T12:18:07;3.80;;;3.50;;
16502;SDS011;53067;48.114;11.694;2023-05-13T12:20:36;4.33;;;4.03;;
16502;SDS011;53067;48.114;11.694;2023-05-13T12:23:04;3.50;;;3.30;;
16502;SDS011;53067;48.114;11.694;2023-05-13T12:28:09;3.60;;;3.40;;
16502;SDS011;53067;48.114;11.694;2023-05-13T12:30:39;3.50;;;3.30;;
16502;SDS011;53067;48.114;11.694;2023-05-13T12:33:15;3.40;;;3.20;;
16502;SDS011;53067;48.114;11.694;2023-05-13T12:35:46;3.80;;;3.43;;
16502;SDS011;53067;48.114;11.694;2023-05-13T12:38:17;3.77;;;3.57;;
16502;SDS011;53067;48.114;11.694;2023-05-13T12:40:46;3.10;;;2.93;;
16502;SDS011;53067;48.114;11.694;2023-05-13T12:43:17;4.50;;;4.17;;
16502;SDS011;53067;48.114;11.694;2023-05-13T12:45:46;3.73;;;3.53;;
16502;SDS011;53067;48.114;11.694;2023-05-13T12:48:15;3.23;;;3.03;;
16502;SDS011;53067;48.114;11.694;2023-05-13T12:50:42;3.40;;;3.20;;
16502;SDS011;53067;48.114;11.694;2023-05-13T12:53:10;3.60;;;3.40;;
16502;SDS011;53067;48.114;11.694;2023-05-13T12:55:38;4.20;;;3.90;;
16502;SDS011;53067;48.114;11.694;2023-05-13T12:58:06;3.80;;;3.60;;
16502;SDS011;53067;48.114;11.694;2023-05-13T13:00:35;4.07;;;3.77;;
16502;SDS011;53067;48.114;11.694;2023-05-13T13:03:03;4.43;;;4.13;;
16502;SDS011;53067;48.114;11.694;2023-05-13T13:05:30;4.17;;;3.87;;
16502;SDS011;53067;48.114;11.694;2023-05-13T13:07:58;4.43;;;4.13;;
16502;SDS011;53067;48.114;11.694;2023-05-13T13:10:35;4.37;;;3.97;;
16502;SDS011;53067;48.114;11.694;2023-05-13T13:13:03;4.50;;;4.20;;
16502;SDS011;53067;48.114;11.694;2023-05-13T13:15:30;4.60;;;4.30;;
16502;SDS011;53067;48.114;11.694;2023-05-13T13:17:58;4.20;;;4.00;;
16502;SDS011;53067;48.114;11.694;2023-05-13T13:20:25;3.70;;;3.47;;
16502;SDS011;53067;48.114;11.694;2023-05-13T13:22:53;4.87;;;4.47;;
16502;SDS011;53067;48.114;11.694;2023-05-13T13:25:20;4.63;;;4.23;;
16502;SDS011;53067;48.114;11.694;2023-05-13T13:27:48;4.47;;;4.17;;
16502;SDS011;53067;48.114;11.694;2023-05-13T13:30:15;4.47;;;4.17;;
16502;SDS011;53067;48.114;11.694;2023-05-13T13:32:42;3.70;;;3.50;;
16502;SDS011;53067;48.114;11.694;2023-05-13T13:35:10;4.23;;;3.93;;
16502;SDS011;53067;48.114;11.694;2023-05-13T13:37:37;3.97;;;3.70;;
16502;SDS011;53067;48.114;11.694;2023-05-13T13:40:05;4.20;;;3.90;;
16502;SDS011;53067;48.114;11.694;2023-05-13T13:42:33;4.20;;;3.90;;
16502;SDS011;53067;48.114;11.694;2023-05-13T13:45:01;4.67;;;3.93;;
16502;SDS011;53067;48.114;11.694;2023-05-13T13:47:28;3.60;;;3.30;;
16502;SDS011;53067;48.114;11.694;2023-05-13T13:49:56;3.60;;;3.40;;
16502;SDS011;53067;48.114;11.694;2023-05-13T13:52:23;4.00;;;3.70;;
16502;SDS011;53067;48.114;11.694;2023-05-13T13:54:53;3.93;;;3.73;;
16502;SDS011;53067;48.114;11.694;2023-05-13T13:57:20;3.60;;;3.40;;
16502;SDS011;53067;48.114;11.694;2023-05-13T13:59:48;3.40;;;3.20;;
16502;SDS011;53067;48.114;11.694;2023-05-13T14:02:15;3.23;;;3.03;;
16502;SDS011;53067;48.114;11.694;2023-05-13T14:04:45;3.40;;;3.20;;
16502;SDS011;53067;48.114;11.694;2023-05-13T14:07:12;3.00;;;2.70;;
16502;SDS011;53067;48.114;11.694;2023-05-13T14:09:40;3.10;;;2.90;;
16502;SDS011;53067;48.114;11.694;2023-05-13T14:12:07;3.10;;;2.90;;
16502;SDS011;53067;48.114;11.694;2023-05-13T14:14:35;2.80;;;2.60;;
16502;SDS011;53067;48.114;11.694;2023-05-13T14:17:02;2.90;;;2.70;;
16502;SDS011;53067;48.114;11.694;2023-05-13T14:19:30;3.10;;;2.90;;
16502;SDS011;53067;48.114;11.694;2023-05-13T14:21:58;3.10;;;2.57;;
16502;SDS011;53067;48.114;11.694;2023-05-13T14:24:25;2.70;;;2.60;;
16502;SDS011;53067;48.114;11.694;2023-05-13T14:26:53;3.50;;;2.63;;
16502;SDS011;53067;48.114;11.694;2023-05-13T14:29:21;2.80;;;2.60;;
16502;SDS011;53067;48.114;11.694;2023-05-13T14:31:48;2.30;;;2.20;;
16502;SDS011;53067;48.114;11.694;2023-05-13T14:34:16;2.97;;;2.77;;
16502;SDS011;53067;48.114;11.694;2023-05-13T14:36:43;2.27;;;2.17;;
16502;SDS011;53067;48.114;11.694;2023-05-13T14:39:11;2.20;;;2.10;;
16502;SDS011;53067;48.114;11.694;2023-05-13T14:41:38;2.55;;;2.42;;
16502;SDS011;53067;48.114;11.694;2023-05-13T14:44:07;2.60;;;2.50;;
16502;SDS011;53067;48.114;11.694;2023-05-13T14:46:34;2.85;;;2.65;;
16502;SDS011;53067;48.114;11.694;2023-05-13T14:49:03;2.60;;;2.50;;
16502;SDS011;53067;48.114;11.694;2023-05-13T14:51:30;2.87;;;2.77;;
16502;SDS011;53067;48.114;11.694;2023-05-13T14:53:58;2.75;;;2.60;;
16502;SDS011;53067;48.114;11.694;2023-05-13T14:56:25;2.65;;;2.42;;
16502;SDS011;53067;48.114;11.694;2023-05-13T14:59:02;2.47;;;2.37;;